Aérodrome :
LOGIN :

S'inscrire | Disclaimer

   EN    FR    IT 

 










Légende :    VFR   VFR Marginal   IFR   IFR Intensif   IFR Très Intensif
Visi : 
Plafond : 
>= 8 km
>= 3000ft
5 à 8 km
1000 à 3000 ft
1500m à 5 km
500 à 1000 ft
800 à 1500m
200 à 500 ft
< 800m
< 200 ft
Symboles :   Orages  Brouillard  Fortes neiges  Fortes précipitations  Vent > 20 kt
SIGMETs :   Divers  Orages  Givrage  Turbulence  Onde Orograph.  Cendres Volcan.






- Altitude de l'aérodrome : 34 ft
- Code IATA : BLK


EGNH - Blackpool

DERNIER METAR :
  • 191350Z 29012KT 9999 SCT017 17/13 Q1015

METARs EXPIRÉS :
  • 191320Z 29011KT 9999 VCSH BKN014 16/13 Q1015
  • 191250Z 31007KT 9000 VCSH BKN012 16/14 Q1015
  • 191220Z 32009KT 9000 -SHRA BKN010 16/14 Q1015
  • 191150Z 24011KT 4000 RA BKN004 16/14 Q1015
  • 191120Z 23011KT 9999 BKN025 17/13 Q1014

TAF AMD TAF EGNH
Valide du 19 à 12h jusqu'au 19 à 20h UTC


191153Z 1912/1920 23010KT 9999 SCT035
BECMG 1912/1915 29010KT
TEMPO 1912/1916 8000 -SHRA
PROB30
TEMPO 1912/1916 4000 SHRA BKN004
ATIS : +44 1253 343 434 (x8315)



MET'MAP, la Météo Aéronautique d'un coup d'oeil ! - Copyright ORBIFLY Décembre 2007 - Disclaimer

ORBIFLY MET'MAP TEAM :

Programmation & Développement : Alexandra Zaïnal
Sur une idée originale de : Baudouin d'Aumeries
Assistance à la programmation : Marc-Olivier Méhu
Soutien technique & logistique : Manuel Goepfert

Contact : metmap@orbifly.com




SOURCES & CREDITS :

   NOAA